Location Sebastian, FL, US

ob KFLSEBAS1 240540Z AUTO 19000KT CLR 26/23 A2986 RMK SLPNO 

2017.05.24 0540 UTC
Wind from the S (194 degrees) at Calm MPH ( KT) gusting to 0.0 MPH (0 KT)
Visibility    Mile(s)
Sky Conditions  clear
Temperature 79.20 F (26 C)
Dew Point 72.87 F (23 C)
Relative Humidity 81%
Pressure   29.86 in. Hg (1011 hPa)
Rain  0.00 in.
Daily Rain  in.

Station Name  www.kflsebas1.com
Longitude, Latitude  -80.48, 27.8
Elevation 23
Station URL www.kflsebas1.com
Software Type VWS V15.00